Time;durP1;ratioP1;P1;durP2;ratioP2;P2;SDS_P1;SDS_P2;PMS_P1;PMS_P2;Temp;Humidity;BMP_temperature;BMP_pressure;BME280_temperature;BME280_humidity;BME280_pressure;Samples;Min_cycle;Max_cycle;Signal;HPM_P1;HPM_P2
2024/01/06 00:00:18;;;;;;;32.83;15.47;;;;;;;-145.18;100.00;47000.28;5093730;28;20032;-72
2024/01/06 00:02:44;;;;;;;29.57;13.37;;;;;;;-145.18;100.00;47004.19;5077642;28;20404;-72
2024/01/06 00:05:09;;;;;;;28.27;13.83;;;;;;;-145.18;100.00;47002.25;5082156;28;20039;-72
2024/01/06 00:07:34;;;;;;;24.57;12.67;;;;;;;-145.18;100.00;47004.19;5058711;28;20031;-72
2024/01/06 00:10:00;;;;;;;26.57;12.00;;;;;;;-145.18;100.00;47000.28;5071772;28;20109;-72
2024/01/06 00:12:25;;;;;;;24.40;11.63;;;;;;;-145.18;100.00;47002.25;5084637;28;20035;-72
2024/01/06 00:14:50;;;;;;;23.43;11.43;;;;;;;-145.18;100.00;47002.25;5076034;28;20212;-72
2024/01/06 00:17:16;;;;;;;23.87;11.97;;;;;;;-145.18;100.00;46992.47;5068085;28;20036;-72
2024/01/06 00:19:42;;;;;;;19.83;10.97;;;;;;;-145.18;100.00;46992.47;5078283;28;20269;-72
2024/01/06 00:22:08;;;;;;;19.70;9.43;;;;;;;-145.18;100.00;46992.47;5093384;28;20119;-72
2024/01/06 00:24:33;;;;;;;18.63;9.93;;;;;;;-145.18;100.00;46990.53;5091492;28;20028;-71
2024/01/06 00:26:59;;;;;;;16.07;10.07;;;;;;;-145.18;100.00;46990.53;5077171;28;20037;-72
2024/01/06 00:29:24;;;;;;;15.93;8.47;;;;;;;-145.18;100.00;46986.63;5092920;28;20048;-72
2024/01/06 00:31:49;;;;;;;16.07;7.27;;;;;;;-145.18;100.00;46980.75;5089755;28;20317;-72
2024/01/06 00:34:15;;;;;;;15.30;8.07;;;;;;;-145.18;100.00;46976.84;5075840;28;20109;-72
2024/01/06 00:36:40;;;;;;;15.20;9.10;;;;;;;-145.18;100.00;46972.94;5068970;28;20476;-72
2024/01/06 00:39:05;;;;;;;15.07;8.70;;;;;;;-145.18;100.00;46967.09;5077192;28;20038;-72
2024/01/06 00:41:31;;;;;;;12.83;7.87;;;;;;;-145.18;100.00;46963.19;5067434;28;20354;-71
2024/01/06 00:43:56;;;;;;;13.87;8.67;;;;;;;-145.18;100.00;46961.22;5079555;28;20060;-72
2024/01/06 00:46:21;;;;;;;15.40;8.07;;;;;;;-145.18;100.00;46955.34;5080976;28;20380;-72
2024/01/06 00:48:47;;;;;;;15.00;8.13;;;;;;;-145.18;100.00;46955.34;5080410;28;20063;-72
2024/01/06 00:51:12;;;;;;;19.40;9.53;;;;;;;-145.18;100.00;46959.25;5062658;28;20036;-72
2024/01/06 00:53:37;;;;;;;18.67;10.27;;;;;;;-145.18;100.00;46957.31;5093236;28;20024;-72
2024/01/06 00:56:03;;;;;;;19.33;9.33;;;;;;;-145.18;100.00;46959.25;5056578;28;20115;-72
2024/01/06 00:58:28;;;;;;;18.17;10.27;;;;;;;-145.18;100.00;46961.22;5077010;28;20032;-72
2024/01/06 01:00:54;;;;;;;20.80;10.57;;;;;;;-145.18;100.00;46957.31;5079903;28;20036;-71
2024/01/06 01:03:19;;;;;;;22.50;11.40;;;;;;;-145.18;100.00;46959.25;5066161;28;20028;-72
2024/01/06 01:05:45;;;;;;;18.00;10.00;;;;;;;-145.18;100.00;46965.13;5057418;28;20028;-72
2024/01/06 01:08:10;;;;;;;17.87;10.87;;;;;;;-145.18;100.00;46959.25;5074757;28;20102;-72
2024/01/06 01:10:35;;;;;;;20.43;10.27;;;;;;;-145.18;100.00;46963.19;5092730;28;20110;-72
2024/01/06 01:13:01;;;;;;;18.77;10.50;;;;;;;-145.18;100.00;46967.09;5092946;28;20039;-72
2024/01/06 01:15:26;;;;;;;16.70;10.40;;;;;;;-145.18;100.00;46967.09;5082705;28;20085;-72
2024/01/06 01:17:51;;;;;;;18.57;10.17;;;;;;;-145.18;100.00;46969.03;5076927;28;20039;-72
2024/01/06 01:20:17;;;;;;;16.70;8.47;;;;;;;-145.18;100.00;46967.09;5075288;28;20129;-72
2024/01/06 01:22:42;;;;;;;14.33;7.30;;;;;;;-145.18;100.00;46967.09;5069079;28;20035;-71
2024/01/06 01:25:08;;;;;;;10.87;5.67;;;;;;;-145.18;100.00;46963.19;5086146;28;20103;-72
2024/01/06 01:27:36;;;;;;;15.80;8.17;;;;;;;-145.18;100.00;46961.22;5061289;28;20056;-72
2024/01/06 01:30:01;;;;;;;13.97;7.57;;;;;;;-145.18;100.00;46959.25;5076610;28;20115;-72
2024/01/06 01:32:27;;;;;;;14.90;7.70;;;;;;;-145.18;100.00;46953.41;5068771;28;20639;-71
2024/01/06 01:34:52;;;;;;;15.80;8.23;;;;;;;-145.18;100.00;46953.41;5082029;28;20029;-72
2024/01/06 01:37:18;;;;;;;12.53;6.50;;;;;;;-145.18;100.00;46955.34;5073860;28;20039;-72
2024/01/06 01:39:43;;;;;;;18.60;7.67;;;;;;;-145.18;100.00;46951.44;5092184;28;20564;-72
2024/01/06 01:42:09;;;;;;;14.60;7.67;;;;;;;-145.18;100.00;46959.25;5073119;28;20042;-77
2024/01/06 01:44:34;;;;;;;14.83;7.47;;;;;;;-145.18;100.00;46955.34;5091059;28;20024;-78
2024/01/06 01:47:00;;;;;;;16.63;8.47;;;;;;;-145.18;100.00;46957.31;5089338;28;20125;-78
2024/01/06 01:49:26;;;;;;;15.40;8.70;;;;;;;-145.18;100.00;46949.50;5079654;28;20099;-78
2024/01/06 01:51:52;;;;;;;13.00;7.87;;;;;;;-145.18;100.00;46949.50;5092133;28;20032;-78
2024/01/06 01:54:18;;;;;;;17.10;8.37;;;;;;;-145.18;100.00;46953.41;5090368;28;20273;-78
2024/01/06 01:56:43;;;;;;;16.57;8.13;;;;;;;-145.18;100.00;46953.41;5072938;28;20742;-77
2024/01/06 01:59:13;;;;;;;11.13;6.47;;;;;;;-145.18;100.00;46951.44;5090179;28;20028;-78
2024/01/06 02:01:39;;;;;;;10.27;5.73;;;;;;;-145.18;100.00;46951.44;5091004;28;20036;-78
2024/01/06 02:04:05;;;;;;;8.83;4.77;;;;;;;-145.18;100.00;46941.69;5091533;28;20280;-77
2024/01/06 02:06:30;;;;;;;10.60;5.33;;;;;;;-145.18;100.00;46941.69;5072863;28;20260;-77
2024/01/06 02:08:56;;;;;;;9.03;5.97;;;;;;;-145.18;100.00;46939.72;5091513;28;20036;-77
2024/01/06 02:11:21;;;;;;;10.23;4.77;;;;;;;-145.18;100.00;46933.88;5092128;28;20032;-77
2024/01/06 02:13:46;;;;;;;14.03;7.23;;;;;;;-145.18;100.00;46937.78;5073029;28;20051;-77
2024/01/06 02:16:12;;;;;;;11.70;6.23;;;;;;;-145.18;100.00;46933.88;5089280;28;20036;-77
2024/01/06 02:18:37;;;;;;;9.33;5.80;;;;;;;-145.18;100.00;46935.81;5071167;28;20054;-78
2024/01/06 02:21:03;;;;;;;9.17;5.97;;;;;;;-145.18;100.00;46931.91;5089674;28;20039;-77
2024/01/06 02:23:29;;;;;;;8.47;5.03;;;;;;;-145.18;100.00;46922.16;5081145;28;20479;-77
2024/01/06 02:25:55;;;;;;;10.53;5.53;;;;;;;-145.18;100.00;46922.16;5081560;28;20078;-78
2024/01/06 02:28:20;;;;;;;11.13;6.20;;;;;;;-145.18;100.00;46926.06;5083929;28;20264;-77
2024/01/06 02:30:46;;;;;;;10.27;6.00;;;;;;;-145.18;100.00;46918.25;5090424;28;20465;-78
2024/01/06 02:33:11;;;;;;;12.30;6.57;;;;;;;-145.18;100.00;46918.25;5083969;28;20476;-78
2024/01/06 02:35:37;;;;;;;12.70;6.40;;;;;;;-145.18;100.00;46924.09;5079785;28;20029;-78
2024/01/06 02:38:02;;;;;;;9.83;5.50;;;;;;;-145.18;100.00;46924.09;5075877;28;20489;-78
2024/01/06 02:40:28;;;;;;;14.60;7.47;;;;;;;-145.18;100.00;46918.25;5081482;28;20024;-77
2024/01/06 02:42:53;;;;;;;13.93;7.27;;;;;;;-145.18;100.00;46914.34;5083834;28;20030;-78
2024/01/06 02:45:19;;;;;;;12.43;7.00;;;;;;;-145.18;100.00;46916.28;5081893;28;20162;-77
2024/01/06 02:47:44;;;;;;;14.63;7.70;;;;;;;-145.18;100.00;46916.28;5066106;28;20076;-77
2024/01/06 02:50:10;;;;;;;13.67;7.17;;;;;;;-145.18;100.00;46922.16;5065441;28;20024;-77
2024/01/06 02:52:35;;;;;;;13.00;7.73;;;;;;;-145.18;100.00;46920.19;5084962;28;20055;-78
2024/01/06 02:55:01;;;;;;;20.33;7.43;;;;;;;-145.18;100.00;46926.06;5083842;28;20109;-78
2024/01/06 02:57:30;;;;;;;12.30;6.67;;;;;;;-145.18;100.00;46926.06;5064717;28;20387;-77
2024/01/06 02:59:56;;;;;;;14.93;7.93;;;;;;;-145.18;100.00;46926.06;5082353;28;20028;-78
2024/01/06 03:02:22;;;;;;;15.60;8.57;;;;;;;-145.18;100.00;46926.06;5084469;28;20260;-78
2024/01/06 03:04:47;;;;;;;16.40;8.60;;;;;;;-145.18;100.00;46933.88;5072774;28;20107;-77
2024/01/06 03:07:12;;;;;;;14.57;8.73;;;;;;;-145.18;100.00;46935.81;5069426;28;20072;-78
2024/01/06 03:09:41;;;;;;;19.67;8.50;;;;;;;-145.18;100.00;46939.72;5085904;28;20114;-78
2024/01/06 03:12:07;;;;;;;19.10;9.07;;;;;;;-145.18;100.00;46939.72;5073493;28;20024;-78
2024/01/06 03:14:34;;;;;;;18.03;9.10;;;;;;;-145.18;100.00;46939.72;5084512;28;20838;-77
2024/01/06 03:17:00;;;;;;;18.73;9.90;;;;;;;-145.18;100.00;46941.69;5088230;28;20317;-77
2024/01/06 03:19:27;;;;;;;16.63;8.90;;;;;;;-145.18;100.00;46945.59;5066602;28;20315;-78
2024/01/06 03:21:52;;;;;;;18.43;10.20;;;;;;;-145.18;100.00;46945.59;5071657;28;20047;-78
2024/01/06 03:24:18;;;;;;;19.87;9.60;;;;;;;-145.18;100.00;46945.59;5076867;28;20725;-78
2024/01/06 03:26:43;;;;;;;18.43;9.00;;;;;;;-145.18;100.00;46947.53;5088271;28;20044;-77
2024/01/06 03:29:09;;;;;;;16.70;9.33;;;;;;;-145.18;100.00;46945.59;5088820;28;20389;-78
2024/01/06 03:31:34;;;;;;;20.33;10.00;;;;;;;-145.18;100.00;46945.59;5089057;28;20056;-77
2024/01/06 03:34:00;;;;;;;19.73;9.87;;;;;;;-145.18;100.00;46947.53;5069156;28;20029;-78
2024/01/06 03:36:25;;;;;;;17.80;9.20;;;;;;;-145.18;100.00;46945.59;5056437;28;20111;-78
2024/01/06 03:38:50;;;;;;;16.70;8.47;;;;;;;-145.18;100.00;46949.50;5070366;28;20170;-78
2024/01/06 03:41:16;;;;;;;14.03;7.97;;;;;;;-145.18;100.00;46947.53;5071321;28;20165;-77
2024/01/06 03:43:41;;;;;;;16.10;8.00;;;;;;;-145.18;100.00;46941.69;5065441;28;20028;-78
2024/01/06 03:46:06;;;;;;;13.10;6.60;;;;;;;-145.18;100.00;46939.72;5066313;28;20032;-78
2024/01/06 03:48:32;;;;;;;14.50;8.37;;;;;;;-145.18;100.00;46943.63;5084478;28;20381;-78
2024/01/06 03:51:00;;;;;;;20.13;9.63;;;;;;;-145.18;100.00;46941.69;5079261;28;20043;-78
2024/01/06 03:53:25;;;;;;;14.63;8.30;;;;;;;-145.18;100.00;46943.63;5083979;28;20024;-77
2024/01/06 03:55:51;;;;;;;14.20;8.20;;;;;;;-145.18;100.00;46939.72;5083126;28;20273;-78
2024/01/06 03:58:17;;;;;;;13.03;7.50;;;;;;;-145.18;100.00;46937.78;5080770;28;20488;-78
2024/01/06 04:00:42;;;;;;;17.63;8.03;;;;;;;-145.18;100.00;46933.88;5087817;28;20302;-78
2024/01/06 04:03:08;;;;;;;13.20;5.60;;;;;;;-145.18;100.00;46937.78;5087012;28;20028;-77
2024/01/06 04:05:34;;;;;;;10.73;6.93;;;;;;;-145.18;100.00;46937.78;5080721;28;20028;-78
2024/01/06 04:07:59;;;;;;;15.13;7.10;;;;;;;-145.18;100.00;46935.81;5093879;28;20044;-78
2024/01/06 04:10:25;;;;;;;13.13;6.93;;;;;;;-145.18;100.00;46935.81;5080623;28;20027;-78
2024/01/06 04:12:50;;;;;;;11.57;7.77;;;;;;;-145.18;100.00;46931.91;5063271;28;20518;-78
2024/01/06 04:15:16;;;;;;;13.10;8.03;;;;;;;-145.18;100.00;46931.91;5049286;28;20044;-78
2024/01/06 04:17:41;;;;;;;12.53;7.90;;;;;;;-145.18;100.00;46933.88;5044515;28;20078;-77
2024/01/06 04:20:07;;;;;;;11.50;7.03;;;;;;;-145.18;100.00;46926.06;5041058;28;20045;-78
2024/01/06 04:22:33;;;;;;;13.83;7.17;;;;;;;-145.18;100.00;46928.00;5042690;28;20031;-78
2024/01/06 04:24:58;;;;;;;13.67;7.60;;;;;;;-145.18;100.00;46929.97;5059736;28;20033;-78
2024/01/06 04:27:24;;;;;;;11.83;6.53;;;;;;;-145.18;100.00;46928.00;5051408;28;20397;-78
2024/01/06 04:29:52;;;;;;;11.47;6.60;;;;;;;-145.18;100.00;46933.88;5053730;28;20041;-77
2024/01/06 04:32:18;;;;;;;13.57;7.40;;;;;;;-145.18;100.00;46931.91;5049697;28;20049;-78
2024/01/06 04:34:44;;;;;;;13.30;8.13;;;;;;;-145.18;100.00;46931.91;5056888;28;20294;-78
2024/01/06 04:37:09;;;;;;;14.03;7.30;;;;;;;-145.18;100.00;46933.88;5051479;28;20412;-78
2024/01/06 04:39:34;;;;;;;18.23;7.60;;;;;;;-145.18;100.00;46937.78;5035449;28;20029;-78
2024/01/06 04:42:00;;;;;;;17.07;7.97;;;;;;;-145.18;100.00;46931.91;5051698;28;20033;-78
2024/01/06 04:44:25;;;;;;;14.30;7.77;;;;;;;-145.18;100.00;46931.91;5052735;28;20025;-78
2024/01/06 04:46:50;;;;;;;14.17;7.50;;;;;;;-145.18;100.00;46928.00;5051154;28;20112;-77
2024/01/06 04:49:16;;;;;;;17.03;8.37;;;;;;;-145.18;100.00;46933.88;5083363;28;20028;-77
2024/01/06 04:51:41;;;;;;;13.97;7.50;;;;;;;-145.18;100.00;46929.97;5067236;28;20075;-78
2024/01/06 04:54:06;;;;;;;13.47;7.03;;;;;;;-145.18;100.00;46933.88;5082033;28;20573;-77
2024/01/06 04:56:32;;;;;;;16.07;8.30;;;;;;;-145.18;100.00;46933.88;5051402;28;20040;-77
2024/01/06 04:58:57;;;;;;;15.93;8.67;;;;;;;-145.18;100.00;46941.69;5050025;28;20081;-78
2024/01/06 05:01:24;;;;;;;16.43;8.13;;;;;;;-145.18;100.00;46933.88;5049825;28;20151;-78
2024/01/06 05:03:49;;;;;;;22.50;9.27;;;;;;;-145.18;100.00;46939.72;5051622;28;20125;-78
2024/01/06 05:06:14;;;;;;;12.23;7.63;;;;;;;-145.18;100.00;46939.72;5050130;28;20344;-78
2024/01/06 05:08:44;;;;;;;14.93;7.67;;;;;;;-145.18;100.00;46939.72;5046997;28;20094;-78
2024/01/06 05:11:10;;;;;;;20.63;8.20;;;;;;;-145.18;100.00;46943.63;5051598;28;20507;-72
2024/01/06 05:13:36;;;;;;;14.37;8.67;;;;;;;-145.18;100.00;46943.63;5054370;28;20636;-72
2024/01/06 05:16:01;;;;;;;12.17;6.57;;;;;;;-145.18;100.00;46945.59;5093068;28;20307;-71
2024/01/06 05:18:27;;;;;;;12.97;6.37;;;;;;;-145.18;100.00;46945.59;5063480;28;20469;-71
2024/01/06 05:20:53;;;;;;;11.37;5.70;;;;;;;-145.18;100.00;46939.72;5083546;28;20775;-72
2024/01/06 05:23:18;;;;;;;11.50;6.37;;;;;;;-145.18;100.00;46939.72;5080292;28;20017;-72
2024/01/06 05:25:43;;;;;;;15.93;7.50;;;;;;;-145.18;100.00;46937.78;5087818;28;20396;-71
2024/01/06 05:28:09;;;;;;;13.23;7.23;;;;;;;-145.18;100.00;46941.69;5073571;28;20040;-72
2024/01/06 05:30:34;;;;;;;10.97;5.93;;;;;;;-145.18;100.00;46937.78;5071107;28;20036;-72
2024/01/06 05:33:01;;;;;;;13.23;6.47;;;;;;;-145.18;100.00;46939.72;5074975;28;20100;-72
2024/01/06 05:35:26;;;;;;;10.37;6.20;;;;;;;-145.18;100.00;46937.78;5091811;28;20044;-71
2024/01/06 05:37:51;;;;;;;15.50;5.57;;;;;;;-145.18;100.00;46939.72;5074424;28;20264;-72
2024/01/06 05:40:17;;;;;;;13.63;6.27;;;;;;;-145.18;100.00;46933.88;5074400;28;20388;-72
2024/01/06 05:42:42;;;;;;;14.87;7.57;;;;;;;-145.18;100.00;46933.88;5092889;28;20043;-72
2024/01/06 05:45:11;;;;;;;10.43;6.07;;;;;;;-145.18;100.00;46933.88;5090612;28;20036;-72
2024/01/06 05:47:37;;;;;;;11.20;5.70;;;;;;;-145.18;100.00;46933.88;5108019;28;20154;-72
2024/01/06 05:50:02;;;;;;;12.83;6.20;;;;;;;-145.18;100.00;46935.81;5073525;28;20364;-72
2024/01/06 05:52:28;;;;;;;7.17;4.73;;;;;;;-145.18;100.00;46928.00;5088972;28;20498;-72
2024/01/06 05:54:53;;;;;;;12.10;6.00;;;;;;;-145.18;100.00;46928.00;5092466;28;20391;-72
2024/01/06 05:57:18;;;;;;;11.53;5.03;;;;;;;-145.18;100.00;46931.91;5073645;28;20075;-72
2024/01/06 05:59:44;;;;;;;9.60;4.70;;;;;;;-145.18;100.00;46926.06;5091189;28;20043;-72
2024/01/06 06:02:09;;;;;;;11.40;5.90;;;;;;;-145.18;100.00;46929.97;5087246;28;20028;-72
2024/01/06 06:04:35;;;;;;;11.30;5.90;;;;;;;-145.18;100.00;46926.06;5092698;28;20028;-72
2024/01/06 06:07:01;;;;;;;11.53;5.83;;;;;;;-145.18;100.00;46924.09;5065476;28;20032;-72
2024/01/06 06:09:28;;;;;;;10.23;5.33;;;;;;;-145.18;100.00;46926.06;5091490;28;20275;-72
2024/01/06 06:11:53;;;;;;;10.30;5.77;;;;;;;-145.18;100.00;46924.09;5072790;28;20074;-72
2024/01/06 06:14:19;;;;;;;12.77;6.50;;;;;;;-145.18;100.00;46926.06;5090993;28;20381;-72
2024/01/06 06:16:44;;;;;;;13.63;6.60;;;;;;;-145.18;100.00;46928.00;5070625;28;20409;-72
2024/01/06 06:19:09;;;;;;;11.27;5.63;;;;;;;-145.18;100.00;46928.00;5084441;28;20039;-72
2024/01/06 06:21:35;;;;;;;9.53;4.40;;;;;;;-145.18;100.00;46928.00;5057591;28;20113;-78
2024/01/06 06:24:00;;;;;;;11.73;6.27;;;;;;;-145.18;100.00;46928.00;5084201;28;20545;-79
2024/01/06 06:26:28;;;;;;;12.27;6.70;;;;;;;-145.18;100.00;46928.00;5101198;28;20033;-78
2024/01/06 06:28:53;;;;;;;12.93;6.37;;;;;;;-145.18;100.00;46924.09;5078603;28;20419;-78
2024/01/06 06:31:19;;;;;;;12.80;5.83;;;;;;;-145.18;100.00;46926.06;5084657;28;20273;-77
2024/01/06 06:33:44;;;;;;;9.03;5.67;;;;;;;-145.18;100.00;46926.06;5060342;28;20047;-78
2024/01/06 06:36:10;;;;;;;10.57;5.53;;;;;;;-145.18;100.00;46926.06;5057768;28;20196;-78
2024/01/06 06:38:36;;;;;;;11.03;5.73;;;;;;;-145.18;100.00;46929.97;5089350;28;20036;-77
2024/01/06 06:41:01;;;;;;;7.80;4.47;;;;;;;-145.18;100.00;46928.00;5080554;28;20291;-78
2024/01/06 06:43:27;;;;;;;9.00;4.73;;;;;;;-145.18;100.00;46926.06;5080353;28;20063;-77
2024/01/06 06:45:53;;;;;;;8.40;5.33;;;;;;;-145.18;100.00;46920.19;5087392;28;20036;-78
2024/01/06 06:48:18;;;;;;;14.10;5.17;;;;;;;-145.18;100.00;46918.25;5086988;28;20059;-77
2024/01/06 06:50:44;;;;;;;10.30;4.53;;;;;;;-145.18;100.00;46920.19;5068046;28;20032;-78
2024/01/06 06:53:09;;;;;;;7.93;4.17;;;;;;;-145.18;100.00;46920.19;5088199;28;20093;-78
2024/01/06 06:55:37;;;;;;;8.03;4.77;;;;;;;-145.18;100.00;46914.34;5068337;28;20072;-77
2024/01/06 06:58:02;;;;;;;9.60;5.20;;;;;;;-145.18;100.00;46916.28;5071589;28;20097;-77
2024/01/06 07:00:28;;;;;;;8.50;4.57;;;;;;;-145.18;100.00;46918.25;5067886;28;20265;-77
2024/01/06 07:02:53;;;;;;;8.90;5.00;;;;;;;-145.18;100.00;46922.16;5049632;28;20040;-78
2024/01/06 07:05:19;;;;;;;10.53;5.97;;;;;;;-145.18;100.00;46914.34;5069973;28;20040;-78
2024/01/06 07:07:46;;;;;;;14.83;6.23;;;;;;;-145.18;100.00;46926.06;5060318;28;20494;-78
2024/01/06 07:10:12;;;;;;;14.50;6.63;;;;;;;-145.18;100.00;46914.34;5089826;28;20085;-77
2024/01/06 07:12:38;;;;;;;9.80;5.87;;;;;;;-145.18;100.00;46926.06;5061247;28;20264;-78
2024/01/06 07:15:03;;;;;;;11.67;6.33;;;;;;;-145.18;100.00;46924.09;5065771;28;20056;-77
2024/01/06 07:17:29;;;;;;;10.57;7.13;;;;;;;-145.18;100.00;46926.06;5088840;28;20458;-77
2024/01/06 07:19:54;;;;;;;11.23;6.63;;;;;;;-145.18;100.00;46926.06;5089816;28;20040;-78
2024/01/06 07:22:20;;;;;;;13.30;6.93;;;;;;;-145.18;100.00;46926.06;5065699;28;20078;-77
2024/01/06 07:24:46;;;;;;;12.17;6.87;;;;;;;-145.18;100.00;46933.88;5094652;28;20027;-78
2024/01/06 07:27:11;;;;;;;14.87;6.30;;;;;;;-145.18;100.00;46928.00;5076901;28;20043;-77
2024/01/06 07:29:37;;;;;;;13.47;7.13;;;;;;;-145.18;100.00;46931.91;5094381;28;20067;-77
2024/01/06 07:32:03;;;;;;;14.33;7.47;;;;;;;-145.18;100.00;46929.97;5082209;28;20395;-77
2024/01/06 07:34:29;;;;;;;12.70;6.93;;;;;;;-145.18;100.00;46931.91;5097084;28;20028;-78
2024/01/06 07:36:54;;;;;;;10.33;6.27;;;;;;;-145.18;100.00;46929.97;5076819;28;20031;-78
2024/01/06 07:39:19;;;;;;;15.10;7.70;;;;;;;-145.18;100.00;46931.91;5080054;28;20823;-76
2024/01/06 07:41:46;;;;;;;13.00;6.83;;;;;;;-145.18;100.00;46929.97;5080140;28;20031;-77
2024/01/06 07:44:15;;;;;;;12.67;6.77;;;;;;;-145.18;100.00;46928.00;5080520;28;20028;-80
2024/01/06 07:46:41;;;;;;;15.37;7.30;;;;;;;-145.18;100.00;46931.91;5098589;28;20276;-78
2024/01/06 07:49:07;;;;;;;13.30;6.77;;;;;;;-145.18;100.00;46929.97;5081588;28;20272;-78
2024/01/06 07:51:34;;;;;;;17.63;6.67;;;;;;;-145.18;100.00;46928.00;5076422;28;21239;-77
2024/01/06 07:54:00;;;;;;;12.80;6.47;;;;;;;-145.18;100.00;46933.88;5093665;28;20032;-77
2024/01/06 07:56:25;;;;;;;12.73;6.63;;;;;;;-145.18;100.00;46929.97;5091156;28;20282;-78
2024/01/06 07:58:51;;;;;;;13.77;6.73;;;;;;;-145.18;100.00;46935.81;5095501;28;20677;-77
2024/01/06 08:01:16;;;;;;;13.60;6.37;;;;;;;-145.18;100.00;46933.88;5099192;28;20028;-78
2024/01/06 08:03:42;;;;;;;13.60;6.83;;;;;;;-145.18;100.00;46935.81;5100471;28;20471;-77
2024/01/06 08:06:08;;;;;;;12.33;6.40;;;;;;;-145.18;100.00;46933.88;5098487;28;20032;-77
2024/01/06 08:08:33;;;;;;;9.27;5.87;;;;;;;-145.18;100.00;46933.88;5099494;28;20274;-76
2024/01/06 08:10:58;;;;;;;10.60;5.87;;;;;;;-145.18;100.00;46937.78;5066006;28;20036;-76
2024/01/06 08:13:24;;;;;;;11.53;6.13;;;;;;;-145.18;100.00;46937.78;5079741;28;20127;-76
2024/01/06 08:15:50;;;;;;;8.50;5.73;;;;;;;-145.18;100.00;46941.69;5064203;28;20429;-77
2024/01/06 08:18:16;;;;;;;13.77;4.53;;;;;;;-145.18;100.00;46935.81;5047443;28;20082;-77
2024/01/06 08:20:41;;;;;;;10.33;5.63;;;;;;;-145.18;100.00;46945.59;5045556;28;20365;-77
2024/01/06 08:23:06;;;;;;;11.23;6.57;;;;;;;-145.18;100.00;46941.69;5047262;28;20029;-77
2024/01/06 08:25:32;;;;;;;9.03;5.70;;;;;;;-145.18;100.00;46945.59;5050190;28;20060;-77
2024/01/06 08:27:57;;;;;;;10.07;5.50;;;;;;;-145.18;100.00;46945.59;5050015;28;20044;-77
2024/01/06 08:30:23;;;;;;;14.00;6.47;;;;;;;-145.18;100.00;46951.44;5048275;28;20033;-77
2024/01/06 08:32:49;;;;;;;11.37;6.70;;;;;;;-145.18;100.00;46941.69;5049225;28;20029;-77
2024/01/06 08:35:16;;;;;;;13.80;6.93;;;;;;;-145.18;100.00;46947.53;5048112;28;20288;-77
2024/01/06 08:37:42;;;;;;;12.87;7.60;;;;;;;-145.18;100.00;46947.53;5040215;28;20108;-77
2024/01/06 08:40:09;;;;;;;15.73;8.17;;;;;;;-145.18;100.00;46943.63;5043862;28;20276;-77
2024/01/06 08:42:34;;;;;;;12.87;6.97;;;;;;;-145.18;100.00;46945.59;5043549;28;20309;-72
2024/01/06 08:44:59;;;;;;;12.53;7.37;;;;;;;-145.18;100.00;46945.59;5067076;28;20318;-72
2024/01/06 08:47:25;;;;;;;17.73;9.00;;;;;;;-145.18;100.00;46941.69;5039774;28;20036;-72
2024/01/06 08:49:50;;;;;;;12.33;7.27;;;;;;;-145.18;100.00;46941.69;5048206;28;20477;-73
2024/01/06 08:52:15;;;;;;;13.17;7.97;;;;;;;-145.18;100.00;46943.63;5042936;28;20075;-72
2024/01/06 08:54:41;;;;;;;11.53;7.37;;;;;;;-145.18;100.00;46939.72;5018011;28;20048;-72
2024/01/06 08:57:06;;;;;;;16.27;9.47;;;;;;;-145.18;100.00;46941.69;5045303;28;20465;-72
2024/01/06 08:59:32;;;;;;;10.37;5.70;;;;;;;-145.18;100.00;46935.81;5046938;28;20025;-72
2024/01/06 09:01:57;;;;;;;16.33;7.87;;;;;;;-145.18;100.00;46933.88;5042847;28;20421;-72
2024/01/06 09:04:22;;;;;;;13.87;8.43;;;;;;;-145.18;100.00;46935.81;5046122;28;20533;-72
2024/01/06 09:06:48;;;;;;;12.27;7.70;;;;;;;-145.18;100.00;46933.88;5073604;28;20032;-72
2024/01/06 09:09:13;;;;;;;15.03;7.93;;;;;;;-145.18;100.00;46933.88;5052578;28;20489;-73
2024/01/06 09:11:39;;;;;;;11.93;7.73;;;;;;;-145.18;100.00;46933.88;5043116;28;20044;-73
2024/01/06 09:14:04;;;;;;;13.17;7.00;;;;;;;-145.18;100.00;46933.88;5045452;28;20068;-73
2024/01/06 09:16:30;;;;;;;18.97;8.93;;;;;;;-145.18;100.00;46931.91;5080079;28;20054;-72
2024/01/06 09:18:55;;;;;;;11.73;7.60;;;;;;;-145.18;100.00;46929.97;5080422;28;20101;-73
2024/01/06 09:21:20;;;;;;;13.27;7.77;;;;;;;-145.18;100.00;46929.97;5048411;28;20102;-72
2024/01/06 09:23:46;;;;;;;12.77;6.77;;;;;;;-145.18;100.00;46926.06;5083905;28;20395;-72
2024/01/06 09:26:11;;;;;;;13.60;7.80;;;;;;;-145.18;100.00;46928.00;5061683;28;20036;-72
2024/01/06 09:28:37;;;;;;;13.47;7.07;;;;;;;-145.18;100.00;46926.06;5093491;28;20066;-72
2024/01/06 09:31:04;;;;;;;11.67;7.63;;;;;;;-145.18;100.00;46931.91;5075147;28;20039;-72
2024/01/06 09:33:29;;;;;;;14.57;8.40;;;;;;;-145.18;100.00;46926.06;5074310;28;20039;-72
2024/01/06 09:35:55;;;;;;;12.90;7.43;;;;;;;-145.18;100.00;46926.06;5057871;28;20268;-72
2024/01/06 09:38:20;;;;;;;17.20;8.43;;;;;;;-145.18;100.00;46924.09;5091637;28;20487;-72
2024/01/06 09:40:46;;;;;;;14.17;8.67;;;;;;;-145.18;100.00;46924.09;5088854;28;20040;-72
2024/01/06 09:43:11;;;;;;;12.20;6.93;;;;;;;-145.18;100.00;46922.16;5056235;28;20056;-72
2024/01/06 09:45:39;;;;;;;13.80;8.07;;;;;;;-145.18;100.00;46924.09;5088727;28;20024;-71
2024/01/06 09:48:15;;;;;;;16.20;8.07;;;;;;;-145.18;100.00;46926.06;5073913;28;20548;-71
2024/01/06 09:50:41;;;;;;;13.67;7.93;;;;;;;-145.18;100.00;46924.09;5085217;28;20269;-71
2024/01/06 09:53:10;;;;;;;11.83;7.47;;;;;;;-145.18;100.00;46922.16;5087831;28;20321;-76
2024/01/06 09:55:37;;;;;;;14.23;8.77;;;;;;;-145.18;100.00;46922.16;5082981;28;20276;-76
2024/01/06 09:58:02;;;;;;;18.53;9.10;;;;;;;-145.18;100.00;46918.25;5087199;28;20257;-76
2024/01/06 10:00:28;;;;;;;14.17;7.87;;;;;;;-145.18;100.00;46918.25;5081080;28;20300;-76
2024/01/06 10:02:54;;;;;;;11.30;7.57;;;;;;;-145.18;100.00;46920.19;5067235;28;20170;-76
2024/01/06 10:05:20;;;;;;;8.90;5.80;;;;;;;-145.18;100.00;46910.44;5080001;28;20111;-76
2024/01/06 10:07:47;;;;;;;10.03;7.03;;;;;;;-145.18;100.00;46908.47;5085365;28;20275;-76
2024/01/06 10:10:12;;;;;;;15.30;6.00;;;;;;;-145.18;100.00;46908.47;5084079;28;20028;-76
2024/01/06 10:12:41;;;;;;;10.30;7.17;;;;;;;-145.18;100.00;46902.63;5085134;28;20264;-76
2024/01/06 10:15:11;;;;;;;13.33;6.80;;;;;;;-145.18;100.00;46904.56;5089737;28;20044;-76
2024/01/06 10:17:38;;;;;;;12.63;6.93;;;;;;;-145.18;100.00;46906.53;5090392;28;20795;-76
2024/01/06 10:20:08;;;;;;;12.17;6.33;;;;;;;-145.18;100.00;46906.53;5083967;28;20261;-76
2024/01/06 10:22:36;;;;;;;13.37;7.03;;;;;;;-145.18;100.00;46902.63;5083692;28;20347;-76
2024/01/06 10:25:01;;;;;;;15.00;6.47;;;;;;;-145.18;100.00;46906.53;5088607;28;20616;-77
2024/01/06 10:27:27;;;;;;;12.00;6.87;;;;;;;-145.18;100.00;46904.56;5100080;28;20269;-77
2024/01/06 10:29:52;;;;;;;13.17;6.93;;;;;;;-145.18;100.00;46904.56;5089779;28;20304;-76
2024/01/06 10:32:18;;;;;;;13.40;5.97;;;;;;;-145.18;100.00;46900.66;5071000;28;20470;-77
2024/01/06 10:34:45;;;;;;;12.83;5.90;;;;;;;-145.18;100.00;46898.72;5089988;28;20043;-77
2024/01/06 10:37:10;;;;;;;11.77;5.77;;;;;;;-145.18;100.00;46902.63;5089290;28;20260;-76
2024/01/06 10:39:36;;;;;;;8.43;5.30;;;;;;;-145.18;100.00;46900.66;5091750;28;20291;-76
2024/01/06 10:42:03;;;;;;;13.33;6.20;;;;;;;-145.18;100.00;46904.56;5082855;28;20106;-77
2024/01/06 10:44:32;;;;;;;10.90;6.10;;;;;;;-145.18;100.00;46902.63;5091583;28;20024;-76
2024/01/06 10:46:58;;;;;;;11.40;5.03;;;;;;;-145.18;100.00;46898.72;5078603;28;20272;-77
2024/01/06 10:49:26;;;;;;;15.10;5.87;;;;;;;-145.18;100.00;46894.81;5079574;28;20409;-76
2024/01/06 10:51:53;;;;;;;8.70;5.67;;;;;;;-145.18;100.00;46890.91;5060641;28;20272;-76
2024/01/06 10:54:20;;;;;;;8.60;4.97;;;;;;;-145.18;100.00;46887.00;5088832;28;20295;-76